Time;durP1;ratioP1;P1;durP2;ratioP2;P2;SDS_P1;SDS_P2;PMS_P1;PMS_P2;Temp;Humidity;BMP_temperature;BMP_pressure;BME280_temperature;BME280_humidity;BME280_pressure;Samples;Min_cycle;Max_cycle;Signal;HPM_P1;HPM_P2
2023/06/02 00:00:41;;;;;;;8.52;0.95;;;11.40;99.90;;;;;;4986790;28;20042;-71
2023/06/02 00:03:06;;;;;;;2.47;0.50;;;11.40;99.90;;;;;;5004244;28;20058;-71
2023/06/02 00:05:32;;;;;;;1.65;0.77;;;11.40;99.90;;;;;;4985828;28;20457;-72
2023/06/02 00:07:58;;;;;;;6.55;1.67;;;11.30;99.90;;;;;;5018768;28;20046;-70
2023/06/02 00:10:24;;;;;;;5.53;1.52;;;11.40;99.90;;;;;;5019494;28;20209;-71
2023/06/02 00:12:50;;;;;;;1.27;0.75;;;11.30;99.90;;;;;;5003619;28;20037;-71
2023/06/02 00:15:17;;;;;;;1.23;0.60;;;11.40;99.90;;;;;;5018934;28;20684;-71
2023/06/02 00:17:42;;;;;;;1.17;0.85;;;11.30;99.90;;;;;;4986076;28;20042;-71
2023/06/02 00:20:09;;;;;;;0.68;0.68;;;11.30;99.90;;;;;;5003422;28;20543;-71
2023/06/02 00:22:38;;;;;;;2.30;1.00;;;11.30;99.90;;;;;;5004333;28;20049;-70
2023/06/02 00:25:04;;;;;;;4.85;0.68;;;11.30;99.90;;;;;;5003613;28;20470;-70
2023/06/02 00:27:30;;;;;;;2.63;1.02;;;11.30;99.90;;;;;;5004013;28;20053;-71
2023/06/02 00:29:55;;;;;;;5.65;1.33;;;11.30;99.90;;;;;;5003535;28;20124;-70
2023/06/02 00:32:21;;;;;;;1.95;1.25;;;11.30;99.90;;;;;;4985911;28;20045;-71
2023/06/02 00:34:46;;;;;;;3.30;0.60;;;11.30;99.90;;;;;;5002477;28;20041;-71
2023/06/02 00:37:12;;;;;;;3.95;1.00;;;11.30;99.90;;;;;;5003142;28;20045;-71
2023/06/02 00:39:37;;;;;;;9.50;1.50;;;11.30;99.90;;;;;;5004228;28;20066;-70
2023/06/02 00:42:04;;;;;;;9.35;1.27;;;11.30;99.90;;;;;;5003118;28;20493;-71
2023/06/02 00:44:30;;;;;;;6.10;1.25;;;11.30;99.90;;;;;;4986355;28;20057;-71
2023/06/02 00:46:56;;;;;;;1.75;1.50;;;11.30;99.90;;;;;;5002834;28;20049;-71
2023/06/02 00:49:22;;;;;;;4.05;1.42;;;11.30;99.90;;;;;;5002931;28;20508;-71
2023/06/02 00:51:49;;;;;;;2.53;1.30;;;11.20;99.90;;;;;;5003413;28;20038;-70
2023/06/02 00:54:16;;;;;;;3.00;1.20;;;11.20;99.90;;;;;;4985492;28;20129;-71
2023/06/02 00:56:43;;;;;;;2.97;1.23;;;11.20;99.90;;;;;;4985694;28;20112;-70
2023/06/02 00:59:10;;;;;;;5.25;1.88;;;11.20;99.90;;;;;;5003761;28;20121;-70
2023/06/02 01:01:38;;;;;;;1.75;0.85;;;11.20;99.90;;;;;;5003561;28;20056;-71
2023/06/02 01:04:07;;;;;;;3.47;0.98;;;11.20;99.90;;;;;;4985863;28;20054;-70
2023/06/02 01:06:36;;;;;;;4.03;1.40;;;11.30;99.90;;;;;;5002172;28;20073;-71
2023/06/02 01:09:04;;;;;;;2.85;1.33;;;11.20;99.90;;;;;;5095594;23;20294;-71
2023/06/02 01:11:31;;;;;;;4.88;1.30;;;11.30;99.90;;;;;;5002769;28;20060;-71
2023/06/02 01:13:56;;;;;;;1.90;0.73;;;11.20;99.90;;;;;;5003091;28;20046;-70
2023/06/02 01:16:22;;;;;;;4.05;1.05;;;11.20;99.90;;;;;;5003681;28;20044;-71
2023/06/02 01:18:51;;;;;;;2.42;0.82;;;11.20;99.90;;;;;;4986556;28;20077;-70
2023/06/02 01:21:26;;;;;;;7.22;1.30;;;11.20;99.90;;;;;;4986836;28;20105;-71
2023/06/02 01:23:57;;;;;;;2.10;1.00;;;11.20;99.90;;;;;;4987298;28;20042;-72
2023/06/02 01:26:23;;;;;;;5.13;1.20;;;11.20;99.90;;;;;;4988134;28;20125;-71
2023/06/02 01:28:49;;;;;;;4.85;1.30;;;11.20;99.90;;;;;;4987756;28;20053;-70
2023/06/02 01:31:18;;;;;;;8.43;1.48;;;11.20;99.90;;;;;;4987523;28;20045;-71
2023/06/02 01:34:00;;;;;;;3.70;1.23;;;11.20;99.90;;;;;;4967083;28;20520;-71
2023/06/02 01:36:28;;;;;;;3.33;0.80;;;11.20;99.90;;;;;;4967069;28;20050;-70
2023/06/02 01:38:57;;;;;;;4.15;1.48;;;11.20;99.90;;;;;;4972733;28;20038;-71
2023/06/02 01:41:25;;;;;;;2.40;1.40;;;11.20;99.90;;;;;;4986601;28;20054;-71
2023/06/02 01:43:52;;;;;;;2.10;0.82;;;11.20;99.90;;;;;;4985895;28;20472;-70
2023/06/02 01:46:18;;;;;;;2.67;0.80;;;11.20;99.90;;;;;;4985775;28;20042;-71
2023/06/02 01:48:43;;;;;;;4.20;0.90;;;11.20;99.90;;;;;;4987038;28;20414;-70
2023/06/02 01:51:09;;;;;;;7.05;0.88;;;11.20;99.90;;;;;;4987125;28;20061;-71
2023/06/02 01:53:34;;;;;;;5.13;0.82;;;11.20;99.90;;;;;;4987488;28;20559;-70
2023/06/02 01:56:00;;;;;;;2.03;1.25;;;11.20;99.90;;;;;;4995173;28;20045;-71
2023/06/02 01:58:26;;;;;;;1.52;0.95;;;11.20;99.90;;;;;;5007026;28;20133;-70
2023/06/02 02:00:54;;;;;;;1.05;0.80;;;11.30;99.90;;;;;;5006323;28;20048;-73
2023/06/02 02:03:22;;;;;;;4.68;0.70;;;11.20;99.90;;;;;;5006577;28;20050;-71
2023/06/02 02:05:47;;;;;;;4.28;1.38;;;11.20;99.90;;;;;;5004379;28;20060;-71
2023/06/02 02:08:13;;;;;;;1.55;1.00;;;11.20;99.90;;;;;;5024475;28;20448;-71
2023/06/02 02:10:39;;;;;;;2.78;1.33;;;11.20;99.90;;;;;;4985950;28;20093;-71
2023/06/02 02:13:04;;;;;;;2.45;0.77;;;11.20;99.90;;;;;;4985975;28;20045;-71
2023/06/02 02:15:30;;;;;;;4.25;2.10;;;11.20;99.90;;;;;;4985711;28;20050;-70
2023/06/02 02:17:58;;;;;;;5.18;1.73;;;11.10;99.90;;;;;;4985617;28;20053;-71
2023/06/02 02:20:26;;;;;;;3.58;0.98;;;11.10;99.90;;;;;;4987188;28;20030;-71
2023/06/02 02:22:51;;;;;;;3.33;1.10;;;11.10;99.90;;;;;;4979843;28;20089;-71
2023/06/02 02:25:17;;;;;;;4.22;1.27;;;11.10;99.90;;;;;;4986561;28;20042;-72
2023/06/02 02:27:43;;;;;;;4.93;1.00;;;11.10;99.90;;;;;;4986436;28;20050;-71
2023/06/02 02:30:08;;;;;;;9.35;2.15;;;11.00;99.90;;;;;;4969090;28;20043;-71
2023/06/02 02:32:38;;;;;;;4.38;1.35;;;11.00;99.90;;;;;;4987164;28;20481;-70
2023/06/02 02:35:04;;;;;;;4.68;1.05;;;11.00;99.90;;;;;;5004115;28;20077;-70
2023/06/02 02:37:30;;;;;;;4.63;1.60;;;11.00;99.90;;;;;;4999104;28;20042;-71
2023/06/02 02:39:56;;;;;;;5.60;1.15;;;10.90;99.90;;;;;;4999862;28;20050;-71
2023/06/02 02:42:21;;;;;;;2.33;1.02;;;11.00;99.90;;;;;;4990303;28;20133;-71
2023/06/02 02:44:50;;;;;;;2.50;1.98;;;10.90;99.90;;;;;;4986256;28;20053;-71
2023/06/02 02:47:16;;;;;;;2.90;1.17;;;10.90;99.90;;;;;;4986216;28;20034;-70
2023/06/02 02:49:41;;;;;;;2.25;0.85;;;10.90;99.90;;;;;;4985221;28;20366;-70
2023/06/02 02:52:07;;;;;;;4.00;1.13;;;10.90;99.90;;;;;;4988094;28;20046;-70
2023/06/02 02:54:33;;;;;;;6.65;2.05;;;10.90;99.90;;;;;;4997627;28;20069;-71
2023/06/02 02:56:58;;;;;;;1.88;1.40;;;10.90;99.90;;;;;;4985851;28;20429;-70
2023/06/02 02:59:25;;;;;;;2.17;0.93;;;10.90;99.90;;;;;;5017492;28;20046;-71
2023/06/02 03:01:51;;;;;;;9.38;1.90;;;10.90;99.90;;;;;;4984788;28;20041;-70
2023/06/02 03:04:22;;;;;;;3.15;0.98;;;11.00;99.90;;;;;;4985039;28;20732;-71
2023/06/02 03:06:50;;;;;;;2.75;1.38;;;10.90;99.90;;;;;;4984511;28;20054;-70
2023/06/02 03:09:16;;;;;;;4.30;1.42;;;11.00;99.90;;;;;;4984518;28;20493;-71
2023/06/02 03:11:42;;;;;;;3.80;0.85;;;11.00;99.90;;;;;;4985569;28;20603;-70
2023/06/02 03:14:09;;;;;;;5.13;1.65;;;11.00;99.90;;;;;;4985908;28;20042;-70
2023/06/02 03:16:35;;;;;;;4.05;1.45;;;11.00;99.90;;;;;;4984532;28;20042;-70
2023/06/02 03:19:02;;;;;;;3.65;1.23;;;11.00;99.90;;;;;;4971121;28;20044;-71
2023/06/02 03:21:31;;;;;;;7.32;2.53;;;11.00;99.90;;;;;;4998791;28;20090;-70
2023/06/02 03:23:58;;;;;;;3.22;1.42;;;11.00;99.90;;;;;;4998056;28;20038;-71
2023/06/02 03:26:26;;;;;;;4.35;1.35;;;11.00;99.90;;;;;;4985898;28;20050;-70
2023/06/02 03:28:54;;;;;;;2.33;0.70;;;11.00;99.90;;;;;;4984921;28;20440;-70
2023/06/02 03:31:24;;;;;;;9.93;1.42;;;11.00;99.90;;;;;;5017195;28;20647;-71
2023/06/02 03:33:49;;;;;;;6.65;1.65;;;11.00;99.90;;;;;;4984235;28;20089;-71
2023/06/02 03:36:17;;;;;;;5.35;1.58;;;11.00;99.90;;;;;;4984973;28;20513;-71
2023/06/02 03:38:43;;;;;;;1.67;0.80;;;11.00;99.90;;;;;;4983717;28;20047;-71
2023/06/02 03:41:09;;;;;;;2.30;1.30;;;11.00;99.90;;;;;;4983953;28;20053;-70
2023/06/02 03:43:34;;;;;;;1.80;1.25;;;11.00;99.90;;;;;;4985442;28;20125;-71
2023/06/02 03:46:00;;;;;;;6.15;1.27;;;11.00;99.90;;;;;;4985163;28;20053;-71
2023/06/02 03:48:25;;;;;;;4.53;0.93;;;11.00;99.90;;;;;;4983518;28;20038;-71
2023/06/02 03:50:51;;;;;;;3.92;1.48;;;11.10;99.90;;;;;;4983103;28;20543;-70
2023/06/02 03:53:16;;;;;;;8.27;1.77;;;11.10;99.90;;;;;;4984709;28;20034;-71
2023/06/02 03:55:42;;;;;;;2.63;1.38;;;11.00;99.90;;;;;;4983552;28;20050;-70
2023/06/02 03:58:07;;;;;;;6.13;1.20;;;11.10;99.90;;;;;;4984015;28;20058;-70
2023/06/02 04:00:33;;;;;;;3.58;0.85;;;11.10;99.90;;;;;;4983892;28;20058;-71
2023/06/02 04:02:59;;;;;;;1.73;1.42;;;11.10;99.90;;;;;;4984591;28;20047;-70
2023/06/02 04:05:24;;;;;;;5.50;1.33;;;11.10;99.90;;;;;;4984111;28;20046;-70
2023/06/02 04:07:50;;;;;;;4.68;1.08;;;11.10;99.90;;;;;;4984076;28;20149;-71
2023/06/02 04:10:16;;;;;;;6.60;1.75;;;11.10;99.90;;;;;;4990413;28;20133;-71
2023/06/02 04:12:41;;;;;;;8.63;1.48;;;11.10;99.90;;;;;;5035966;28;20121;-70
2023/06/02 04:15:07;;;;;;;1.95;0.98;;;11.10;99.90;;;;;;5036467;28;20053;-71
2023/06/02 04:17:33;;;;;;;5.10;1.77;;;11.10;99.90;;;;;;5000767;28;20057;-71
2023/06/02 04:19:58;;;;;;;4.80;1.55;;;11.10;99.90;;;;;;4991148;28;20042;-71
2023/06/02 04:22:24;;;;;;;2.58;0.68;;;11.10;99.90;;;;;;4999320;28;20161;-70
2023/06/02 04:24:50;;;;;;;5.00;1.48;;;11.10;99.90;;;;;;5034008;28;20050;-71
2023/06/02 04:27:16;;;;;;;3.75;1.52;;;11.10;99.90;;;;;;4986469;28;20883;-70
2023/06/02 04:29:42;;;;;;;6.35;1.02;;;11.20;99.90;;;;;;4983900;28;20043;-71
2023/06/02 04:32:08;;;;;;;3.38;0.80;;;11.10;99.90;;;;;;4995623;28;20104;-70
2023/06/02 04:34:35;;;;;;;2.78;1.23;;;11.20;99.90;;;;;;5002287;28;20059;-70
2023/06/02 04:37:01;;;;;;;4.35;1.05;;;11.20;99.90;;;;;;5017285;28;20046;-71
2023/06/02 04:39:26;;;;;;;3.20;2.15;;;11.20;99.90;;;;;;4984117;28;20507;-70
2023/06/02 04:41:52;;;;;;;8.68;2.13;;;11.20;99.90;;;;;;4982917;28;20058;-71
2023/06/02 04:44:17;;;;;;;3.05;1.35;;;11.20;99.90;;;;;;4996220;28;20070;-70
2023/06/02 04:46:43;;;;;;;3.28;1.15;;;11.20;99.90;;;;;;5015505;28;20161;-71
2023/06/02 04:49:09;;;;;;;8.88;1.58;;;11.30;99.90;;;;;;4983816;28;20039;-70
2023/06/02 04:51:35;;;;;;;6.50;1.67;;;11.20;99.90;;;;;;4984226;28;20113;-71
2023/06/02 04:54:01;;;;;;;4.95;1.33;;;11.20;99.90;;;;;;4995596;28;20069;-71
2023/06/02 04:56:27;;;;;;;7.15;1.05;;;11.30;99.90;;;;;;5003500;28;20694;-72
2023/06/02 04:58:53;;;;;;;6.43;1.25;;;11.30;99.90;;;;;;5003929;28;20411;-72
2023/06/02 05:01:19;;;;;;;9.23;3.53;;;11.30;99.90;;;;;;4987013;28;20200;-71
2023/06/02 05:03:44;;;;;;;2.53;0.98;;;11.30;99.90;;;;;;4983177;28;20505;-71
2023/06/02 05:06:10;;;;;;;5.95;1.67;;;11.30;99.90;;;;;;4983807;28;20034;-72
2023/06/02 05:08:36;;;;;;;4.18;1.27;;;11.30;99.90;;;;;;4987444;28;20054;-71
2023/06/02 05:11:02;;;;;;;5.32;1.65;;;11.30;99.90;;;;;;4983781;28;20034;-72
2023/06/02 05:13:28;;;;;;;9.70;1.45;;;11.40;99.90;;;;;;4983259;28;20134;-69
2023/06/02 05:15:55;;;;;;;3.53;0.98;;;11.30;99.90;;;;;;4978901;28;20515;-71
2023/06/02 05:18:21;;;;;;;4.18;1.15;;;11.40;99.90;;;;;;4958500;28;20093;-72
2023/06/02 05:20:47;;;;;;;8.00;1.55;;;11.40;99.90;;;;;;4970480;28;20069;-71
2023/06/02 05:23:13;;;;;;;9.30;1.33;;;11.40;99.90;;;;;;4986479;28;20038;-71
2023/06/02 05:25:39;;;;;;;3.22;1.83;;;11.40;99.90;;;;;;4984426;28;20043;-72
2023/06/02 05:28:05;;;;;;;6.95;1.88;;;11.40;99.90;;;;;;4992487;28;20103;-71
2023/06/02 05:30:30;;;;;;;11.63;1.65;;;11.40;99.90;;;;;;4986556;28;20042;-72
2023/06/02 05:32:56;;;;;;;4.18;1.33;;;11.50;99.90;;;;;;4982906;28;20072;-72
2023/06/02 05:35:21;;;;;;;2.40;1.58;;;11.50;99.90;;;;;;4982365;28;20038;-71
2023/06/02 05:37:47;;;;;;;6.38;1.52;;;11.50;99.90;;;;;;4983265;28;20311;-71
2023/06/02 05:40:13;;;;;;;6.60;1.17;;;11.50;99.90;;;;;;4982706;28;20047;-71
2023/06/02 05:42:39;;;;;;;7.72;1.75;;;11.50;99.90;;;;;;4988207;28;20109;-70
2023/06/02 05:45:05;;;;;;;4.05;2.08;;;11.50;99.90;;;;;;4984896;28;20169;-70
2023/06/02 05:47:31;;;;;;;6.25;1.80;;;11.50;99.90;;;;;;4997206;28;20046;-70
2023/06/02 05:49:57;;;;;;;6.70;1.35;;;11.50;99.90;;;;;;5031785;28;20045;-71
2023/06/02 05:52:23;;;;;;;4.65;2.10;;;11.60;99.90;;;;;;5002000;28;20496;-69
2023/06/02 05:54:49;;;;;;;4.03;1.23;;;11.60;99.90;;;;;;4997949;28;20038;-71
2023/06/02 05:57:17;;;;;;;14.27;1.70;;;11.60;99.90;;;;;;4990703;28;20054;-71
2023/06/02 05:59:43;;;;;;;4.93;1.33;;;11.60;99.90;;;;;;4975018;28;20042;-71
2023/06/02 06:02:08;;;;;;;3.80;1.30;;;11.60;99.90;;;;;;4986855;28;20042;-71
2023/06/02 06:04:34;;;;;;;4.78;1.73;;;11.60;99.90;;;;;;4991999;28;20038;-70
2023/06/02 06:07:00;;;;;;;6.07;1.17;;;11.70;99.90;;;;;;5001832;28;20072;-70
2023/06/02 06:09:25;;;;;;;6.88;1.63;;;11.60;99.90;;;;;;5003180;28;20060;-70
2023/06/02 06:11:51;;;;;;;6.05;1.60;;;11.70;99.90;;;;;;4990689;28;20038;-70
2023/06/02 06:14:16;;;;;;;10.25;2.03;;;11.70;99.90;;;;;;4989847;28;20069;-70
2023/06/02 06:16:42;;;;;;;8.07;2.47;;;11.70;99.90;;;;;;5023821;28;20090;-70
2023/06/02 06:19:08;;;;;;;5.65;1.42;;;11.70;99.90;;;;;;5023378;28;20408;-69
2023/06/02 06:21:34;;;;;;;5.60;1.23;;;11.70;99.90;;;;;;4987379;28;20409;-70
2023/06/02 06:24:00;;;;;;;8.43;2.25;;;11.80;99.90;;;;;;5001520;28;20053;-69
2023/06/02 06:26:26;;;;;;;4.43;1.80;;;11.80;99.90;;;;;;5025573;28;20699;-70
2023/06/02 06:28:51;;;;;;;8.30;1.70;;;11.80;99.90;;;;;;5027711;28;20467;-70
2023/06/02 06:31:17;;;;;;;6.20;1.83;;;11.80;99.90;;;;;;4996206;28;20053;-69
2023/06/02 06:33:42;;;;;;;6.70;2.22;;;11.90;99.90;;;;;;4985566;28;20492;-70
2023/06/02 06:36:10;;;;;;;6.53;1.73;;;11.90;99.90;;;;;;4986001;28;20097;-72
2023/06/02 06:38:36;;;;;;;4.88;2.22;;;11.90;99.90;;;;;;5018099;28;20058;-70
2023/06/02 06:41:01;;;;;;;9.43;2.03;;;11.90;99.90;;;;;;4986477;28;20045;-70
2023/06/02 06:43:27;;;;;;;6.95;2.55;;;12.00;99.90;;;;;;4993330;28;20070;-70
2023/06/02 06:45:52;;;;;;;6.22;1.52;;;12.00;99.90;;;;;;4990039;28;20066;-70
2023/06/02 06:48:18;;;;;;;8.88;2.30;;;12.00;99.90;;;;;;4997410;28;20042;-71
2023/06/02 06:50:43;;;;;;;6.43;1.73;;;12.00;99.90;;;;;;5023490;28;20042;-70
2023/06/02 06:53:11;;;;;;;6.35;1.60;;;12.10;99.90;;;;;;4992850;28;20508;-70
2023/06/02 06:55:36;;;;;;;8.05;1.73;;;12.10;99.90;;;;;;5017495;28;20133;-70
2023/06/02 06:58:02;;;;;;;7.68;2.38;;;12.10;99.90;;;;;;4989424;28;20631;-70
2023/06/02 07:00:28;;;;;;;11.63;2.30;;;12.20;99.90;;;;;;4984533;28;20362;-70
2023/06/02 07:02:53;;;;;;;3.63;1.20;;;12.10;99.90;;;;;;4983381;28;20053;-70
2023/06/02 07:05:19;;;;;;;5.80;2.05;;;12.20;99.90;;;;;;4994887;28;20073;-70
2023/06/02 07:07:46;;;;;;;10.98;2.13;;;12.30;99.90;;;;;;4986840;28;20247;-70
2023/06/02 07:10:14;;;;;;;10.10;2.05;;;12.30;99.90;;;;;;4989250;28;20488;-71
2023/06/02 07:12:41;;;;;;;7.20;1.92;;;12.30;99.90;;;;;;4984024;28;20085;-71
2023/06/02 07:15:07;;;;;;;9.40;2.30;;;12.30;99.90;;;;;;4984041;28;20078;-71
2023/06/02 07:17:33;;;;;;;6.72;1.63;;;12.40;99.90;;;;;;4985023;28;20493;-70
2023/06/02 07:19:58;;;;;;;7.20;2.00;;;12.40;99.90;;;;;;4997144;28;20092;-71
2023/06/02 07:22:24;;;;;;;4.30;2.10;;;12.40;99.90;;;;;;5002155;28;20073;-71
2023/06/02 07:24:51;;;;;;;4.88;1.30;;;12.40;99.90;;;;;;5002179;28;20042;-71
2023/06/02 07:27:16;;;;;;;10.43;2.67;;;12.50;99.90;;;;;;4995233;28;20050;-71
2023/06/02 07:29:42;;;;;;;6.55;2.55;;;12.60;99.90;;;;;;4984027;28;20088;-71
2023/06/02 07:32:08;;;;;;;5.47;2.20;;;12.60;99.90;;;;;;4984455;28;20049;-72
2023/06/02 07:34:34;;;;;;;5.68;2.15;;;12.60;99.90;;;;;;4993090;28;20594;-71
2023/06/02 07:37:02;;;;;;;2.83;2.30;;;12.70;99.90;;;;;;5034855;28;20516;-71
2023/06/02 07:39:28;;;;;;;6.65;2.20;;;12.80;99.90;;;;;;4993084;28;20053;-71
2023/06/02 07:41:53;;;;;;;8.32;2.45;;;12.70;99.90;;;;;;4991894;28;20077;-71
2023/06/02 07:44:19;;;;;;;12.07;2.30;;;12.70;99.90;;;;;;5004020;28;20053;-71
2023/06/02 07:46:45;;;;;;;8.88;2.25;;;12.80;99.90;;;;;;4987211;28;20414;-71
2023/06/02 07:49:12;;;;;;;7.65;2.17;;;12.90;99.90;;;;;;4981722;28;20408;-72
2023/06/02 07:51:39;;;;;;;6.97;1.63;;;12.90;99.90;;;;;;4984575;28;20038;-71
2023/06/02 07:54:05;;;;;;;5.07;2.08;;;12.90;99.90;;;;;;4966400;28;20046;-72
2023/06/02 07:56:31;;;;;;;15.90;2.45;;;12.90;99.90;;;;;;4984701;28;20424;-71
2023/06/02 07:58:56;;;;;;;6.05;1.75;;;13.00;99.90;;;;;;4982122;28;20042;-71
2023/06/02 08:01:22;;;;;;;6.05;1.85;;;13.00;99.90;;;;;;4983891;28;20066;-71
2023/06/02 08:03:48;;;;;;;2.92;1.75;;;13.10;99.90;;;;;;4997939;28;20033;-71
2023/06/02 08:06:15;;;;;;;12.15;2.70;;;13.10;99.90;;;;;;5001725;28;20096;-71
2023/06/02 08:08:41;;;;;;;10.52;2.50;;;13.20;99.90;;;;;;4997541;28;20143;-72
2023/06/02 08:11:07;;;;;;;12.05;2.42;;;13.20;99.90;;;;;;5001818;28;20072;-71
2023/06/02 08:13:32;;;;;;;6.25;2.80;;;13.30;99.90;;;;;;4988937;28;20042;-71
2023/06/02 08:15:59;;;;;;;4.85;1.75;;;13.30;99.90;;;;;;4982833;28;20042;-71
2023/06/02 08:18:25;;;;;;;6.82;1.45;;;13.40;99.90;;;;;;4983842;28;20069;-71
2023/06/02 08:20:51;;;;;;;5.57;1.77;;;13.50;99.90;;;;;;4982674;28;20278;-71
2023/06/02 08:23:17;;;;;;;5.95;2.25;;;13.60;99.90;;;;;;4993036;28;20084;-71
2023/06/02 08:25:44;;;;;;;5.10;1.42;;;13.70;99.90;;;;;;5000872;28;20218;-71
2023/06/02 08:28:11;;;;;;;5.65;2.22;;;13.70;99.90;;;;;;4988030;28;20039;-73
2023/06/02 08:30:37;;;;;;;7.55;1.75;;;13.80;99.90;;;;;;4983870;28;20043;-72
2023/06/02 08:33:05;;;;;;;6.47;2.25;;;13.90;99.90;;;;;;4986676;28;20046;-72
2023/06/02 08:35:32;;;;;;;10.00;2.38;;;13.90;99.90;;;;;;4987672;28;20046;-71
2023/06/02 08:37:58;;;;;;;4.93;1.40;;;14.00;99.90;;;;;;4983490;28;20046;-70
2023/06/02 08:40:37;;;;;;;6.93;1.40;;;14.00;99.90;;;;;;4997602;28;20369;-71
2023/06/02 08:43:04;;;;;;;10.55;2.15;;;14.10;99.90;;;;;;4984961;28;20111;-71
2023/06/02 08:45:30;;;;;;;5.32;1.55;;;14.20;99.90;;;;;;4984228;28;20054;-71
2023/06/02 08:47:57;;;;;;;3.15;1.73;;;14.30;99.90;;;;;;4997203;28;20045;-71
2023/06/02 08:50:26;;;;;;;10.85;2.55;;;14.40;99.90;;;;;;4992299;28;20363;-71
2023/06/02 08:52:55;;;;;;;8.98;1.92;;;14.40;99.90;;;;;;4993622;28;20038;-70
2023/06/02 08:55:22;;;;;;;6.32;1.45;;;14.40;99.90;;;;;;5001615;28;20042;-71
2023/06/02 08:57:48;;;;;;;9.30;2.17;;;14.50;99.90;;;;;;5002125;28;20038;-71
2023/06/02 09:00:15;;;;;;;7.28;1.98;;;14.60;99.90;;;;;;5001917;28;20048;-71
2023/06/02 09:02:40;;;;;;;9.70;1.35;;;14.60;99.90;;;;;;5002751;28;20041;-71
2023/06/02 09:05:07;;;;;;;6.43;1.63;;;14.60;99.90;;;;;;5002990;28;20046;-71
2023/06/02 09:07:33;;;;;;;6.03;1.65;;;14.70;99.90;;;;;;5018176;28;20313;-71
2023/06/02 09:09:59;;;;;;;5.13;1.45;;;14.70;99.90;;;;;;5033874;28;20081;-71
2023/06/02 09:12:25;;;;;;;4.13;1.50;;;14.80;99.90;;;;;;4999407;28;20045;-71
2023/06/02 09:15:17;;;;;;;7.35;2.10;;;14.80;99.90;;;;;;4987812;28;20489;-71
2023/06/02 09:17:42;;;;;;;6.10;1.77;;;14.90;99.90;;;;;;5000058;28;20072;-71
2023/06/02 09:20:11;;;;;;;4.80;1.70;;;14.90;99.90;;;;;;5021545;28;20480;-71
2023/06/02 09:22:53;;;;;;;10.15;1.58;;;14.90;99.90;;;;;;4999784;28;20042;-71
2023/06/02 09:25:20;;;;;;;;;;;14.90;99.90;;;;;;5003438;28;20408;-71
2023/06/02 09:28:12;;;;;;;3.08;1.65;;;15.00;99.90;;;;;;4990861;28;20111;-71
2023/06/02 09:30:38;;;;;;;7.32;1.50;;;14.90;99.90;;;;;;4979075;28;20062;-71
2023/06/02 09:33:09;;;;;;;10.55;1.83;;;15.00;99.90;;;;;;4981609;28;20081;-71
2023/06/02 09:35:42;;;;;;;4.75;1.55;;;15.00;99.90;;;;;;4983158;28;20084;-71
2023/06/02 09:38:10;;;;;;;4.97;1.55;;;15.10;99.90;;;;;;4982056;28;20046;-71
2023/06/02 09:40:41;;;;;;;5.82;1.55;;;15.10;99.90;;;;;;4985698;28;20174;-71
2023/06/02 09:43:08;;;;;;;1.25;0.90;;;15.00;99.90;;;;;;5000737;28;20215;-71
2023/06/02 09:45:58;;;;;;;2.10;1.45;;;15.10;99.90;;;;;;5002197;28;20120;-71
2023/06/02 09:48:23;;;;;;;6.63;1.88;;;15.10;99.90;;;;;;4985274;28;20548;-71
2023/06/02 09:50:49;;;;;;;3.33;1.00;;;15.20;99.90;;;;;;4984831;28;20130;-71
2023/06/02 09:53:17;;;;;;;5.47;1.20;;;15.20;99.90;;;;;;4986603;28;20367;-71
2023/06/02 09:55:45;;;;;;;4.05;1.60;;;15.20;99.90;;;;;;4998741;28;20133;-71
2023/06/02 09:58:11;;;;;;;2.65;0.98;;;15.20;99.90;;;;;;5004903;28;20038;-71
2023/06/02 10:00:37;;;;;;;1.85;0.85;;;15.30;99.90;;;;;;5006481;28;20042;-71
2023/06/02 10:03:03;;;;;;;2.13;1.15;;;15.40;99.90;;;;;;5004581;28;20046;-71
2023/06/02 10:05:29;;;;;;;2.15;1.17;;;15.40;99.90;;;;;;4993734;28;20481;-71
2023/06/02 10:08:01;;;;;;;3.40;1.38;;;15.50;99.90;;;;;;4973649;28;20042;-71
2023/06/02 10:10:44;;;;;;;8.20;1.67;;;15.50;99.90;;;;;;5005420;28;20387;-71
2023/06/02 10:13:28;;;;;;;3.05;0.93;;;15.60;99.90;;;;;;5002127;28;20327;-73
2023/06/02 10:15:59;;;;;;;6.53;0.85;;;15.60;99.90;;;;;;5003493;28;20129;-71
2023/06/02 10:18:47;;;;;;;2.88;0.57;;;15.70;99.90;;;;;;5004044;28;20539;-71
2023/06/02 10:21:18;;;;;;;4.05;1.20;;;15.70;99.90;;;;;;4986678;28;20038;-72
2023/06/02 10:24:00;;;;;;;1.98;0.90;;;15.70;99.90;;;;;;4967307;28;20041;-72
2023/06/02 10:27:03;;;;;;;1.98;0.50;;;15.70;99.90;;;;;;4974160;28;20049;-71
2023/06/02 10:29:32;;;;;;;4.97;0.88;;;15.80;99.90;;;;;;4984932;28;20058;-71
2023/06/02 10:31:58;;;;;;;4.57;1.63;;;15.80;99.90;;;;;;4983053;28;20049;-71
2023/06/02 10:34:40;;;;;;;3.90;0.85;;;15.90;99.90;;;;;;4982990;28;20042;-71
2023/06/02 10:37:06;;;;;;;4.70;0.85;;;15.90;99.90;;;;;;4985368;28;20120;-71
2023/06/02 10:39:40;;;;;;;0.82;0.50;;;15.90;99.90;;;;;;5016855;28;20056;-71
2023/06/02 10:42:07;;;;;;;2.78;0.93;;;16.00;99.90;;;;;;5016890;28;20056;-71
2023/06/02 10:44:32;;;;;;;1.52;0.77;;;16.00;99.90;;;;;;4982901;28;20055;-71
2023/06/02 10:47:16;;;;;;;4.22;1.23;;;16.00;99.90;;;;;;4984675;28;20046;-72
2023/06/02 10:50:02;;;;;;;2.60;0.95;;;16.00;99.90;;;;;;4983790;28;20050;-71
2023/06/02 10:52:30;;;;;;;2.72;0.80;;;16.00;99.90;;;;;;4984722;28;20054;-71
2023/06/02 10:55:07;;;;;;;5.18;0.90;;;16.10;99.90;;;;;;4984607;28;20049;-71
2023/06/02 10:57:58;;;;;;;5.03;1.23;;;16.10;99.90;;;;;;5015784;28;20057;-72
2023/06/02 11:00:35;;;;;;;0.60;0.55;;;16.10;99.90;;;;;;5016023;28;20204;-71
2023/06/02 11:03:25;;;;;;;3.15;0.82;;;16.10;99.90;;;;;;5014655;28;20062;-71
2023/06/02 11:06:11;;;;;;;2.85;0.70;;;16.10;99.90;;;;;;4983834;28;20334;-72
2023/06/02 11:08:37;;;;;;;3.03;0.68;;;16.10;99.90;;;;;;4983755;28;20085;-71
2023/06/02 11:11:03;;;;;;;4.03;0.63;;;16.10;99.90;;;;;;4983991;28;20493;-71
2023/06/02 11:13:29;;;;;;;0.98;0.82;;;16.10;99.90;;;;;;4984390;28;20046;-71
2023/06/02 11:15:58;;;;;;;1.98;0.85;;;16.10;99.90;;;;;;4983060;28;20046;-71
2023/06/02 11:18:32;;;;;;;2.55;0.68;;;16.20;99.90;;;;;;4982612;28;20349;-71
2023/06/02 11:21:15;;;;;;;0.75;0.30;;;16.20;99.90;;;;;;5015591;28;20515;-71
2023/06/02 11:23:43;;;;;;;2.75;0.68;;;16.20;99.90;;;;;;5014977;28;20037;-72
2023/06/02 11:26:18;;;;;;;3.38;0.68;;;16.20;99.90;;;;;;4984522;28;20042;-71
2023/06/02 11:28:43;;;;;;;1.10;0.90;;;16.20;99.90;;;;;;4983305;28;20513;-71
2023/06/02 11:31:17;;;;;;;3.38;0.70;;;16.20;99.90;;;;;;4984468;28;20081;-72
2023/06/02 11:33:48;;;;;;;0.45;0.45;;;16.20;99.90;;;;;;4982937;28;20038;-71
2023/06/02 11:36:15;;;;;;;1.05;0.55;;;16.30;99.90;;;;;;4983184;28;20082;-71
2023/06/02 11:38:41;;;;;;;1.27;0.77;;;16.30;99.90;;;;;;4983904;28;20042;-72
2023/06/02 11:41:12;;;;;;;1.90;0.65;;;16.40;99.90;;;;;;4984301;28;20078;-71
2023/06/02 11:43:38;;;;;;;3.20;1.15;;;16.30;99.90;;;;;;4983796;28;20042;-72
2023/06/02 11:46:08;;;;;;;0.63;0.45;;;16.40;99.90;;;;;;4982025;28;20050;-71
2023/06/02 11:48:40;;;;;;;1.02;0.63;;;16.30;99.90;;;;;;4982289;28;20035;-72
2023/06/02 11:51:08;;;;;;;1.55;1.30;;;16.40;99.90;;;;;;4983051;28;20042;-71
2023/06/02 11:53:35;;;;;;;3.15;0.90;;;16.40;99.90;;;;;;4983774;28;20085;-71
2023/06/02 11:56:00;;;;;;;1.55;0.65;;;16.50;99.90;;;;;;4981541;28;20042;-71
2023/06/02 11:58:27;;;;;;;0.47;0.45;;;16.40;99.90;;;;;;4983535;28;20540;-71
2023/06/02 12:01:15;;;;;;;3.15;0.43;;;16.40;99.90;;;;;;4983180;28;20038;-71
2023/06/02 12:03:53;;;;;;;3.03;0.90;;;16.40;99.90;;;;;;4981554;28;20089;-72
2023/06/02 12:06:19;;;;;;;1.92;1.02;;;16.40;99.90;;;;;;4983440;28;20046;-71
2023/06/02 12:08:46;;;;;;;1.27;1.05;;;16.50;99.90;;;;;;4982611;28;20082;-71
2023/06/02 12:11:15;;;;;;;2.45;1.10;;;16.40;99.90;;;;;;4983247;28;20054;-71
2023/06/02 12:13:41;;;;;;;3.58;0.68;;;16.50;99.90;;;;;;5014119;28;20397;-72
2023/06/02 12:16:19;;;;;;;1.13;0.63;;;16.50;99.90;;;;;;5015133;28;20126;-71
2023/06/02 12:18:45;;;;;;;2.28;0.47;;;16.50;99.90;;;;;;4981912;28;20038;-71
2023/06/02 12:21:22;;;;;;;0.95;0.65;;;16.50;99.90;;;;;;4983066;28;20077;-71
2023/06/02 12:23:48;;;;;;;0.75;0.55;;;16.60;99.90;;;;;;4981543;28;20488;-71
2023/06/02 12:26:15;;;;;;;1.48;0.73;;;16.60;99.90;;;;;;4981821;28;20050;-72
2023/06/02 12:28:40;;;;;;;0.98;0.82;;;16.60;99.90;;;;;;4982732;28;20460;-73
2023/06/02 12:31:06;;;;;;;2.20;0.77;;;16.70;99.90;;;;;;4983370;28;20052;-72
2023/06/02 12:33:32;;;;;;;2.38;0.55;;;16.70;99.90;;;;;;4980994;28;20431;-71
2023/06/02 12:35:58;;;;;;;4.53;1.05;;;16.70;99.90;;;;;;4982168;28;20097;-72
2023/06/02 12:38:23;;;;;;;2.38;0.88;;;16.60;99.90;;;;;;4982769;28;20042;-71
2023/06/02 12:40:50;;;;;;;3.80;1.10;;;16.70;99.90;;;;;;4982102;28;20085;-71
2023/06/02 12:43:20;;;;;;;2.42;1.08;;;16.70;99.90;;;;;;4981589;28;20053;-71
2023/06/02 12:45:50;;;;;;;4.00;1.75;;;16.60;99.90;;;;;;4980870;28;20053;-71
2023/06/02 12:48:15;;;;;;;4.13;1.00;;;16.70;99.90;;;;;;4980593;28;20050;-71